Time;durP1;ratioP1;P1;durP2;ratioP2;P2;SDS_P1;SDS_P2;PMS_P1;PMS_P2;Temp;Humidity;BMP_temperature;BMP_pressure;BME280_temperature;BME280_humidity;BME280_pressure;Samples;Min_cycle;Max_cycle;Signal;HPM_P1;HPM_P2
2022/05/23 00:00:01;;;;;;;6.40;1.60;;;;;;;18.90;35.90;98340.75;4470845;32;20097;-83
2022/05/23 00:02:27;;;;;;;5.40;1.90;;;;;;;18.95;36.14;98342.00;4469693;32;20146;-82
2022/05/23 00:04:52;;;;;;;7.15;1.45;;;;;;;19.02;36.07;98340.37;4470765;32;20104;-83
2022/05/23 00:07:29;;;;;;;5.60;1.70;;;;;;;19.03;36.15;98341.25;4470720;32;20412;-84
2022/05/23 00:09:54;;;;;;;6.05;1.65;;;;;;;18.95;36.09;98339.31;4469612;32;20228;-84
2022/05/23 00:12:22;;;;;;;3.90;1.58;;;;;;;18.85;36.29;98342.03;4470707;32;20134;-83
2022/05/23 00:14:51;;;;;;;7.43;1.80;;;;;;;18.91;36.11;98348.63;4470512;32;20400;-84
2022/05/23 00:17:18;;;;;;;4.82;1.65;;;;;;;18.97;36.12;98352.53;4469520;32;20379;-84
2022/05/23 00:19:44;;;;;;;6.23;1.80;;;;;;;18.96;36.24;98354.34;4469355;32;20088;-83
2022/05/23 00:22:11;;;;;;;4.97;1.50;;;;;;;19.00;36.09;98347.72;4470474;32;20120;-83
2022/05/23 00:24:37;;;;;;;;;;;;;;;19.02;36.27;98350.25;4470807;32;20482;-83
2022/05/23 00:27:03;;;;;;;5.07;1.75;;;;;;;19.05;36.34;98348.13;4469321;32;19968;-84
2022/05/23 00:29:29;;;;;;;5.12;1.92;;;;;;;19.03;36.37;98344.75;4469249;32;20108;-84
2022/05/23 00:37:22;;;;;;;6.35;1.55;;;;;;;19.00;36.47;98336.19;4470374;32;20103;-84
2022/05/23 00:39:48;;;;;;;3.50;1.50;;;;;;;18.95;36.79;98339.31;4469166;32;20124;-83
2022/05/23 00:45:01;;;;;;;4.55;1.62;;;;;;;18.95;36.50;98341.13;4471472;32;20119;-85
2022/05/23 00:47:28;;;;;;;4.90;1.67;;;;;;;18.91;36.53;98335.28;4472510;32;20158;-85
2022/05/23 00:49:54;;;;;;;5.22;1.40;;;;;;;18.86;36.82;98334.88;4472723;32;20153;-85
2022/05/23 00:52:32;;;;;;;4.32;1.37;;;;;;;18.86;36.69;98337.53;4471504;32;20433;-85
2022/05/23 00:55:00;;;;;;;6.03;1.40;;;;;;;18.85;36.65;98343.84;4480133;32;20096;-85
2022/05/23 00:57:27;;;;;;;;;;;;;;;18.81;36.77;98340.66;4474133;32;20151;-86
2022/05/23 00:59:52;;;;;;;4.80;1.50;;;;;;;18.83;36.51;98340.47;4473895;32;20329;-85
2022/05/23 01:02:19;;;;;;;4.05;1.50;;;;;;;18.71;36.50;98338.97;4487974;32;20096;-85
2022/05/23 01:04:44;;;;;;;5.50;1.50;;;;;;;18.77;36.49;98333.03;4473742;32;20108;-85
2022/05/23 01:07:12;;;;;;;4.20;1.55;;;;;;;18.74;36.51;98323.50;4487953;32;20401;-85
2022/05/23 01:09:37;;;;;;;5.62;1.70;;;;;;;18.74;36.80;98338.69;4487865;32;20107;-85
2022/05/23 01:12:03;;;;;;;4.40;1.60;;;;;;;18.72;36.66;98336.16;4487926;32;20382;-86
2022/05/23 01:14:46;;;;;;;5.00;1.62;;;;;;;18.73;36.88;98347.66;4487849;32;20089;-84
2022/05/23 01:17:12;;;;;;;5.35;1.62;;;;;;;18.71;37.13;98344.31;4473793;32;20111;-84
2022/05/23 01:19:37;;;;;;;4.75;1.52;;;;;;;18.67;37.27;98338.41;4473687;32;20466;-84
2022/05/23 01:22:08;;;;;;;5.10;1.45;;;;;;;18.67;37.12;98333.91;4473576;32;20126;-84
2022/05/23 01:24:45;;;;;;;4.97;1.40;;;;;;;18.64;37.04;98333.41;4473694;32;20108;-84
2022/05/23 01:27:11;;;;;;;4.47;1.73;;;;;;;18.62;37.23;98336.19;4473608;32;20110;-84
2022/05/23 01:29:36;;;;;;;8.15;1.77;;;;;;;18.61;37.00;98334.50;4473493;32;20080;-84
2022/05/23 01:32:02;;;;;;;7.03;1.83;;;;;;;18.57;36.99;98340.28;4473569;32;20105;-85
2022/05/23 01:34:28;;;;;;;3.85;1.60;;;;;;;18.58;37.01;98336.62;4487731;32;20513;-84
2022/05/23 01:36:54;;;;;;;6.72;1.80;;;;;;;18.55;37.12;98335.09;4487729;32;20088;-84
2022/05/23 01:39:19;;;;;;;3.28;1.50;;;;;;;18.52;37.38;98332.69;4473480;32;20370;-83
2022/05/23 01:41:45;;;;;;;4.75;1.50;;;;;;;18.53;37.47;98328.22;4487709;32;20093;-83
2022/05/23 01:44:11;;;;;;;5.45;1.70;;;;;;;18.52;37.21;98327.38;4487696;32;20085;-83
2022/05/23 01:46:36;;;;;;;4.10;1.50;;;;;;;18.52;37.04;98321.19;4473506;32;20144;-83
2022/05/23 01:49:02;;;;;;;5.93;1.60;;;;;;;18.52;37.12;98326.53;4487439;32;20081;-85
2022/05/23 01:51:28;;;;;;;4.87;1.75;;;;;;;18.49;37.45;98321.50;4473374;32;20142;-85
2022/05/23 01:53:53;;;;;;;3.65;1.58;;;;;;;18.46;37.61;98311.94;4487265;32;20111;-85
2022/05/23 01:56:19;;;;;;;4.65;1.60;;;;;;;18.45;37.79;98318.28;4487623;32;20084;-86
2022/05/23 02:01:28;;;;;;;5.95;1.60;;;;;;;18.44;37.42;98309.41;4487789;32;20521;-86
2022/05/23 02:03:53;;;;;;;6.15;1.70;;;;;;;18.41;37.28;98308.91;4487531;32;20088;-85
2022/05/23 02:06:19;;;;;;;3.92;1.60;;;;;;;18.41;37.27;98299.06;4487471;32;20084;-85
2022/05/23 02:08:45;;;;;;;5.20;1.75;;;;;;;18.38;37.22;98303.84;4473268;32;20111;-85
2022/05/23 02:11:10;;;;;;;4.72;1.58;;;;;;;18.35;37.11;98296.13;4473248;32;20417;-85
2022/05/23 02:13:38;;;;;;;5.45;1.70;;;;;;;18.35;37.31;98299.66;4487493;32;20398;-85
2022/05/23 02:16:04;;;;;;;5.80;1.65;;;;;;;18.34;37.36;98297.12;4473155;32;20089;-86
2022/05/23 02:18:30;;;;;;;4.28;1.42;;;;;;;18.33;37.60;98298.09;4487533;32;20484;-86
2022/05/23 02:20:56;;;;;;;4.10;1.33;;;;;;;18.31;37.80;98300.94;4473120;32;20101;-85
2022/05/23 02:23:22;;;;;;;5.20;1.60;;;;;;;18.29;37.90;98297.53;4460232;32;20371;-86
2022/05/23 02:25:47;;;;;;;4.65;1.40;;;;;;;18.26;37.79;98296.00;4473243;32;20092;-86
2022/05/23 02:28:13;;;;;;;3.85;1.55;;;;;;;18.25;37.89;98294.34;4487735;32;20356;-86
2022/05/23 02:30:38;;;;;;;5.78;1.70;;;;;;;18.24;37.92;98289.16;4473417;32;20142;-86
2022/05/23 02:33:04;;;;;;;4.57;1.60;;;;;;;18.20;37.90;98288.59;4487660;32;20084;-85
2022/05/23 02:35:30;;;;;;;4.97;1.75;;;;;;;18.18;37.62;98287.91;4473352;32;20100;-83
2022/05/23 02:37:55;;;;;;;4.43;1.60;;;;;;;18.20;37.65;98288.59;4473451;32;20423;-83
2022/05/23 02:40:21;;;;;;;3.95;1.80;;;;;;;18.17;37.62;98280.88;4487572;32;20375;-84
2022/05/23 02:42:46;;;;;;;5.30;1.45;;;;;;;18.14;37.76;98274.97;4487667;32;20439;-83
2022/05/23 02:45:13;;;;;;;6.03;1.60;;;;;;;18.11;37.79;98283.28;4487576;32;20365;-83
2022/05/23 02:47:38;;;;;;;5.65;1.62;;;;;;;18.14;37.51;98289.19;4487432;32;20427;-83
2022/05/23 02:50:05;;;;;;;4.45;1.70;;;;;;;18.16;37.33;98283.72;4487503;32;20085;-83
2022/05/23 02:52:30;;;;;;;4.60;1.55;;;;;;;18.19;37.56;98288.72;4487145;32;20118;-83
2022/05/23 02:54:56;;;;;;;7.12;1.90;;;;;;;18.18;37.63;98285.22;4472622;32;20088;-83
2022/05/23 02:57:21;;;;;;;5.37;1.80;;;;;;;18.16;37.75;98291.72;4487270;32;20076;-83
2022/05/23 02:59:47;;;;;;;4.72;1.50;;;;;;;18.18;37.21;98290.56;4487145;32;20106;-83
2022/05/23 03:04:56;;;;;;;3.67;1.60;;;;;;;18.24;38.05;98286.47;4486602;32;20123;-83
2022/05/23 03:07:21;;;;;;;4.82;1.45;;;;;;;18.23;38.41;98288.31;4487014;32;20080;-83
2022/05/23 03:09:47;;;;;;;6.20;1.90;;;;;;;18.20;38.37;98285.94;4487093;32;20141;-83
2022/05/23 03:12:12;;;;;;;5.40;1.45;;;;;;;18.25;38.29;98289.00;4472707;32;20126;-82
2022/05/23 03:14:38;;;;;;;7.78;2.12;;;;;;;18.26;38.36;98289.84;4487045;32;20145;-82
2022/05/23 03:17:04;;;;;;;5.03;1.70;;;;;;;18.25;38.62;98289.00;4472757;32;20132;-83
2022/05/23 03:19:30;;;;;;;4.47;1.67;;;;;;;18.28;38.48;98288.72;4487064;32;20123;-83
2022/05/23 03:27:24;;;;;;;5.37;1.90;;;;;;;18.32;38.64;98299.09;4486957;32;20202;-83
2022/05/23 03:29:51;;;;;;;8.35;2.10;;;;;;;18.38;38.64;98299.34;4472551;32;20108;-84
2022/05/23 03:32:17;;;;;;;6.18;1.70;;;;;;;18.44;38.85;98301.41;4486861;32;20085;-83
2022/05/23 03:34:42;;;;;;;4.68;1.90;;;;;;;18.55;38.35;98294.25;4486837;32;20122;-84
2022/05/23 03:37:07;;;;;;;4.87;1.70;;;;;;;18.58;38.84;98299.28;4486717;32;20193;-83
2022/05/23 03:39:33;;;;;;;6.32;2.25;;;;;;;18.61;39.06;98297.16;4486707;32;20471;-83
2022/05/23 03:41:58;;;;;;;8.10;1.90;;;;;;;18.66;39.03;98296.72;4486718;32;20077;-83
2022/05/23 03:44:23;;;;;;;4.97;1.83;;;;;;;18.70;39.04;98295.44;4486577;32;20144;-84
2022/05/23 03:46:49;;;;;;;8.68;2.00;;;;;;;18.70;39.04;98302.59;4486719;32;20056;-84
2022/05/23 03:49:14;;;;;;;4.75;1.85;;;;;;;18.73;38.96;98302.31;4472293;32;20135;-84
2022/05/23 03:51:40;;;;;;;5.10;1.67;;;;;;;18.81;39.14;98302.44;4486637;32;20380;-83
2022/05/23 03:54:06;;;;;;;4.93;1.70;;;;;;;18.84;39.01;98304.81;4472015;32;20153;-83
2022/05/23 03:56:31;;;;;;;5.80;1.80;;;;;;;18.91;38.59;98297.03;4486718;32;20080;-83
2022/05/23 03:58:57;;;;;;;6.10;1.73;;;;;;;18.96;37.48;98300.94;4486713;32;20081;-85
2022/05/23 04:01:27;;;;;;;5.35;1.80;;;;;;;19.09;37.02;98299.78;4486691;32;20093;-83
2022/05/23 04:03:52;;;;;;;6.18;1.90;;;;;;;19.21;37.17;98295.88;4472424;32;20080;-83
2022/05/23 04:06:18;;;;;;;5.53;1.80;;;;;;;19.29;36.59;98298.63;4486690;32;20425;-83
2022/05/23 04:08:43;;;;;;;5.35;1.80;;;;;;;19.37;36.82;98290.72;4486643;32;20092;-83
2022/05/23 04:11:08;;;;;;;5.20;1.77;;;;;;;19.43;37.09;98294.59;4486320;32;20073;-83
2022/05/23 04:13:34;;;;;;;5.97;2.05;;;;;;;19.56;37.74;98294.22;4486249;32;20084;-84
2022/05/23 04:16:00;;;;;;;3.47;1.62;;;;;;;19.55;37.83;98297.91;4472195;32;20129;-84
2022/05/23 04:18:25;;;;;;;5.10;2.17;;;;;;;19.51;37.34;98292.03;4474093;32;20089;-84
2022/05/23 04:20:51;;;;;;;6.25;2.03;;;;;;;19.65;36.98;98293.31;4488121;32;20088;-84
2022/05/23 04:23:17;;;;;;;5.57;1.70;;;;;;;19.73;37.25;98289.91;4473799;32;20147;-83
2022/05/23 04:25:44;;;;;;;4.57;1.70;;;;;;;19.87;37.66;98292.03;4488143;32;20068;-83
2022/05/23 04:28:11;;;;;;;5.87;1.80;;;;;;;19.96;37.30;98287.59;4473966;32;20161;-83
2022/05/23 04:30:37;;;;;;;7.50;2.00;;;;;;;20.06;37.01;98285.66;4473995;32;20157;-83
2022/05/23 04:35:50;;;;;;;5.53;1.60;;;;;;;20.32;36.79;98287.47;4487863;31;20137;-83
2022/05/23 04:38:15;;;;;;;6.95;1.90;;;;;;;20.40;36.46;98285.72;4474905;31;20088;-83
2022/05/23 04:40:41;;;;;;;6.75;2.17;;;;;;;20.53;36.39;98289.78;4489446;31;20149;-83
2022/05/23 04:43:06;;;;;;;5.30;1.83;;;;;;;20.65;36.28;98285.00;4503825;31;20123;-83
2022/05/23 04:45:32;;;;;;;6.72;2.03;;;;;;;20.85;35.93;98289.13;4491642;31;20073;-83
2022/05/23 04:50:44;;;;;;;6.07;2.12;;;;;;;21.18;35.60;98283.88;4488144;32;20115;-83
2022/05/23 04:53:10;;;;;;;7.37;2.12;;;;;;;21.28;35.09;98287.25;4487868;32;20080;-83
2022/05/23 04:55:37;;;;;;;5.37;1.98;;;;;;;21.27;35.40;98290.09;4473553;32;20412;-83
2022/05/23 04:58:03;;;;;;;5.18;1.90;;;;;;;21.47;34.71;98290.66;4488055;32;20115;-83
2022/05/23 05:00:29;;;;;;;4.60;1.80;;;;;;;21.58;34.55;98304.59;4487890;32;20143;-83
2022/05/23 05:02:59;;;;;;;5.00;1.70;;;;;;;21.68;33.92;98304.41;4487928;32;20099;-83
2022/05/23 05:05:25;;;;;;;5.35;1.77;;;;;;;21.78;33.20;98297.03;4474110;32;20081;-83
2022/05/23 05:07:50;;;;;;;6.00;1.85;;;;;;;21.91;32.79;98296.56;4487811;32;20353;-83
2022/05/23 05:10:16;;;;;;;7.82;2.15;;;;;;;22.08;32.51;98307.25;4487913;32;20081;-84
2022/05/23 05:12:41;;;;;;;5.10;1.90;;;;;;;22.19;32.02;98309.59;4487860;32;20129;-84
2022/05/23 05:15:08;;;;;;;6.62;1.95;;;;;;;22.11;32.28;98313.12;4492922;31;20127;-84
2022/05/23 05:17:33;;;;;;;5.78;1.90;;;;;;;22.23;32.56;98307.41;4503725;31;20088;-84
2022/05/23 05:19:59;;;;;;;6.57;1.80;;;;;;;22.46;32.01;98304.91;4503527;31;20448;-84
2022/05/23 05:22:24;;;;;;;5.80;2.05;;;;;;;22.46;32.38;98313.78;4503576;31;20106;-84
2022/05/23 05:24:49;;;;;;;6.05;1.70;;;;;;;22.55;31.88;98310.06;4503556;31;20106;-83
2022/05/23 05:27:15;;;;;;;6.78;2.00;;;;;;;22.58;31.85;98315.09;4503082;31;20136;-85
2022/05/23 05:29:40;;;;;;;6.40;1.98;;;;;;;22.61;32.01;98303.19;4503500;31;20399;-84
2022/05/23 05:32:23;;;;;;;7.35;2.05;;;;;;;22.66;32.02;98308.03;4503427;31;20143;-84
2022/05/23 05:35:21;;;;;;;6.65;1.83;;;;;;;22.75;31.62;98305.16;4503537;31;20133;-85
2022/05/23 05:37:59;;;;;;;6.12;1.80;;;;;;;22.85;31.53;98310.31;4438642;32;20149;-82
2022/05/23 05:40:27;;;;;;;5.35;1.50;;;;;;;23.04;31.35;98309.06;4426105;32;20097;-83
2022/05/23 05:42:58;;;;;;;4.53;1.55;;;;;;;23.08;31.50;98304.19;4425901;32;20089;-83
2022/05/23 05:45:32;;;;;;;5.25;1.85;;;;;;;23.07;31.11;98310.59;4438627;32;20081;-83
2022/05/23 05:47:58;;;;;;;6.35;1.80;;;;;;;23.12;31.64;98310.88;4438848;32;20116;-84
2022/05/23 05:50:29;;;;;;;5.45;1.73;;;;;;;23.24;30.86;98311.34;4425815;32;20622;-84
2022/05/23 05:52:57;;;;;;;7.43;1.75;;;;;;;23.44;30.64;98314.44;4438639;32;20073;-84
2022/05/23 05:55:22;;;;;;;3.78;1.60;;;;;;;23.49;30.99;98304.81;4425463;32;20147;-84
2022/05/23 05:57:48;;;;;;;5.75;1.75;;;;;;;23.54;30.24;98301.56;4438606;32;20201;-83
2022/05/23 06:00:14;;;;;;;8.65;1.95;;;;;;;23.68;29.57;98308.03;4438621;32;20169;-86
2022/05/23 06:02:39;;;;;;;5.43;1.80;;;;;;;23.73;29.68;98301.09;4438547;32;20147;-85
2022/05/23 06:05:05;;;;;;;5.65;1.77;;;;;;;23.86;29.24;98308.59;4438500;32;20109;-85
2022/05/23 06:12:57;;;;;;;9.40;1.80;;;;;;;23.95;29.01;98317.44;4459680;31;20087;-84
2022/05/23 06:15:23;;;;;;;9.85;1.92;;;;;;;24.05;28.85;98318.03;4503134;31;20072;-85
2022/05/23 06:17:51;;;;;;;7.12;1.90;;;;;;;24.10;28.90;98321.00;4503121;31;20096;-83
2022/05/23 06:20:17;;;;;;;7.85;2.08;;;;;;;24.11;28.81;98320.00;4503185;31;20583;-84
2022/05/23 06:22:43;;;;;;;6.43;1.80;;;;;;;24.24;28.78;98315.84;4503218;31;20110;-86
2022/05/23 06:25:09;;;;;;;8.02;1.60;;;;;;;24.28;28.88;98322.53;4503213;31;20397;-84
2022/05/23 06:27:35;;;;;;;7.12;1.80;;;;;;;24.33;28.49;98323.66;4475577;31;20131;-84
2022/05/23 06:30:00;;;;;;;7.18;1.55;;;;;;;24.49;27.24;98319.13;4503175;31;20385;-85
2022/05/23 06:32:26;;;;;;;5.55;1.50;;;;;;;24.41;27.52;98316.53;4503148;31;20076;-85
2022/05/23 06:34:51;;;;;;;9.20;1.70;;;;;;;24.34;28.35;98311.06;4502942;31;20106;-84
2022/05/23 06:37:17;;;;;;;5.70;1.70;;;;;;;24.34;28.45;98321.81;4503346;31;20084;-83
2022/05/23 06:39:42;;;;;;;7.93;1.95;;;;;;;24.34;28.59;98324.50;4488011;31;20100;-83
2022/05/23 06:42:08;;;;;;;6.28;1.52;;;;;;;24.37;28.29;98321.44;4503327;31;20115;-84
2022/05/23 06:44:34;;;;;;;6.62;1.60;;;;;;;24.44;27.45;98303.53;4503312;31;20358;-85
2022/05/23 06:46:59;;;;;;;10.32;2.03;;;;;;;24.44;27.92;98295.44;4503189;31;20116;-88
2022/05/23 06:49:25;;;;;;;8.32;1.70;;;;;;;24.37;28.33;98297.19;4488912;31;20114;-89
2022/05/23 06:51:52;;;;;;;8.98;1.80;;;;;;;24.55;28.48;98294.22;4503239;31;20435;-86
2022/05/23 06:54:21;;;;;;;7.25;1.80;;;;;;;24.58;28.31;98295.69;4502799;31;20152;-86
2022/05/23 06:56:48;;;;;;;7.55;1.67;;;;;;;24.76;27.73;98290.72;4488505;31;20164;-85
2022/05/23 06:59:14;;;;;;;5.47;1.45;;;;;;;24.79;27.04;98290.38;4502909;31;20164;-86
2022/05/23 07:01:39;;;;;;;8.52;1.70;;;;;;;24.82;27.38;98289.16;4502889;31;20096;-85
2022/05/23 07:04:05;;;;;;;6.15;1.60;;;;;;;24.96;26.87;98285.63;4488602;31;20127;-81
2022/05/23 07:14:42;;;;;;;7.95;1.60;;;;;;;25.07;26.79;98273.50;4502720;31;20110;-86
2022/05/23 07:17:08;;;;;;;6.03;1.60;;;;;;;25.12;27.23;98284.56;4502738;31;20143;-86
2022/05/23 07:19:37;;;;;;;8.95;1.60;;;;;;;25.08;27.15;98273.31;4502736;31;20084;-86
2022/05/23 07:22:03;;;;;;;6.90;1.55;;;;;;;25.07;27.58;98276.19;4502758;31;20110;-86
2022/05/23 07:24:30;;;;;;;7.72;1.60;;;;;;;25.22;26.91;98274.34;4502601;31;20119;-86
2022/05/23 07:26:56;;;;;;;8.00;1.80;;;;;;;25.26;26.35;98264.84;4502619;31;20111;-86
2022/05/23 07:29:22;;;;;;;6.30;1.52;;;;;;;25.30;26.22;98263.47;4488204;31;20096;-86
2022/05/23 07:31:49;;;;;;;5.75;1.30;;;;;;;25.28;26.88;98270.03;4488309;31;20076;-86
2022/05/23 07:34:14;;;;;;;6.03;1.55;;;;;;;25.47;26.29;98269.41;4488196;31;20088;-86
2022/05/23 07:36:40;;;;;;;6.30;1.30;;;;;;;25.42;25.76;98269.19;4502564;31;20135;-84
2022/05/23 07:39:08;;;;;;;5.75;1.45;;;;;;;25.39;25.80;98271.41;4488501;31;20363;-86
2022/05/23 07:41:33;;;;;;;;;;;;;;;25.55;25.29;98267.62;4503160;31;20092;-86
2022/05/23 07:43:59;;;;;;;11.15;1.92;;;;;;;25.48;25.81;98264.88;4502897;31;19963;-85
2022/05/23 07:46:24;;;;;;;5.20;1.65;;;;;;;24.90;26.66;98268.34;4502612;31;20102;-86
2022/05/23 07:48:51;;;;;;;5.90;1.58;;;;;;;25.18;27.10;98258.72;4488438;31;20091;-86
2022/05/23 07:51:18;;;;;;;9.05;1.77;;;;;;;25.31;27.05;98267.81;4502462;31;20386;-86
2022/05/23 08:01:56;;;;;;;3.80;1.33;;;;;;;25.39;26.07;98260.63;4490129;31;20111;-86
2022/05/23 08:04:22;;;;;;;7.50;1.42;;;;;;;25.40;25.92;98256.91;4487824;31;20080;-86
2022/05/23 08:06:48;;;;;;;7.55;1.87;;;;;;;25.58;25.98;98254.59;4502122;31;20118;-85
2022/05/23 08:09:13;;;;;;;7.90;1.73;;;;;;;25.57;25.42;98255.63;4502175;31;20128;-86
2022/05/23 08:11:41;;;;;;;7.65;1.60;;;;;;;25.66;25.09;98256.34;4502120;31;20109;-86
2022/05/23 08:14:07;;;;;;;5.65;1.58;;;;;;;25.73;25.92;98240.19;4487697;31;20118;-85
2022/05/23 08:16:32;;;;;;;4.25;1.50;;;;;;;25.67;25.48;98242.66;4502014;31;20209;-86
2022/05/23 08:19:02;;;;;;;5.00;1.30;;;;;;;25.63;25.37;98243.22;4501949;31;20378;-86
2022/05/23 08:21:28;;;;;;;9.48;1.80;;;;;;;25.63;26.18;98238.69;4502063;31;20106;-86
2022/05/23 08:23:54;;;;;;;5.55;1.73;;;;;;;25.68;26.43;98240.78;4501936;31;20084;-85
2022/05/23 08:26:19;;;;;;;4.20;1.52;;;;;;;25.66;25.85;98242.84;4487571;31;20159;-86
2022/05/23 08:28:45;;;;;;;6.80;1.92;;;;;;;25.73;26.36;98245.59;4487624;31;20100;-85
2022/05/23 08:31:10;;;;;;;5.82;1.45;;;;;;;25.72;25.38;98236.66;4501859;31;20072;-85
2022/05/23 08:33:36;;;;;;;7.47;2.00;;;;;;;25.60;26.03;98246.31;4501617;31;20099;-86
2022/05/23 08:36:01;;;;;;;6.65;1.98;;;;;;;25.72;25.57;98239.38;4501706;31;20348;-86
2022/05/23 08:38:26;;;;;;;3.22;1.30;;;;;;;25.76;25.17;98231.72;4487320;31;20088;-86
2022/05/23 08:41:08;;;;;;;6.62;1.70;;;;;;;25.72;25.74;98230.44;4501624;31;20080;-86
2022/05/23 08:43:36;;;;;;;7.20;1.90;;;;;;;25.75;25.29;98230.03;4487298;31;20375;-85
2022/05/23 08:46:02;;;;;;;4.70;1.37;;;;;;;25.81;25.86;98224.72;4501671;31;20465;-85
2022/05/23 08:48:42;;;;;;;6.37;1.60;;;;;;;25.79;25.74;98229.47;4487182;31;20097;-85
2022/05/23 08:51:16;;;;;;;8.13;1.60;;;;;;;25.88;25.96;98222.06;4487311;31;20102;-86
2022/05/23 08:54:07;;;;;;;6.03;1.52;;;;;;;25.89;25.20;98219.16;4487207;31;20076;-86
2022/05/23 08:56:37;;;;;;;6.05;2.00;;;;;;;26.00;25.23;98204.34;4501348;31;20083;-85
2022/05/23 08:59:04;;;;;;;7.75;1.75;;;;;;;25.90;25.01;98217.28;4487183;31;20091;-85
2022/05/23 09:01:44;;;;;;;5.43;1.45;;;;;;;26.03;24.31;98212.03;4487102;31;20080;-85
2022/05/23 09:04:18;;;;;;;8.40;1.67;;;;;;;26.06;24.04;98205.41;4489453;31;20140;-85
2022/05/23 09:06:49;;;;;;;8.18;1.65;;;;;;;26.01;25.15;98197.91;4476258;31;20107;-84
2022/05/23 09:09:17;;;;;;;7.00;1.70;;;;;;;26.07;25.00;98197.09;4489416;31;20100;-85
2022/05/23 09:11:46;;;;;;;6.82;1.92;;;;;;;26.13;24.21;98202.75;4489384;31;20096;-85
2022/05/23 09:14:13;;;;;;;6.20;1.40;;;;;;;26.24;24.00;98203.03;4489402;31;20084;-86
2022/05/23 09:16:46;;;;;;;5.15;1.60;;;;;;;26.22;24.19;98194.28;4489222;31;20092;-85
2022/05/23 09:19:25;;;;;;;7.05;1.50;;;;;;;26.37;24.32;98194.19;4489468;31;20485;-85
2022/05/23 09:22:12;;;;;;;3.33;1.50;;;;;;;26.35;24.37;98200.78;4489333;31;20150;-85
2022/05/23 09:24:52;;;;;;;6.43;1.45;;;;;;;26.42;24.34;98198.97;4490695;31;20152;-85
2022/05/23 09:27:25;;;;;;;5.53;1.67;;;;;;;26.39;24.48;98202.09;4489522;31;20123;-85
2022/05/23 09:29:53;;;;;;;6.95;1.73;;;;;;;26.55;23.73;98195.50;4489276;31;20448;-85
2022/05/23 09:32:23;;;;;;;6.80;1.50;;;;;;;26.56;23.96;98195.31;4503524;31;20131;-86
2022/05/23 09:34:55;;;;;;;7.75;1.62;;;;;;;26.65;24.26;98198.69;4489169;31;20083;-85
2022/05/23 09:37:24;;;;;;;5.55;1.58;;;;;;;26.79;23.77;98202.28;4489225;31;20104;-85
2022/05/23 09:39:55;;;;;;;4.57;1.40;;;;;;;26.81;22.74;98201.06;4475813;31;20096;-84
2022/05/23 09:48:17;;;;;;;8.18;1.48;;;;;;;27.05;23.55;98194.25;4438033;32;20116;-87
2022/05/23 09:50:52;;;;;;;8.02;1.60;;;;;;;27.14;23.68;98197.63;4424874;32;20106;-86
2022/05/23 09:53:22;;;;;;;8.32;1.60;;;;;;;27.22;23.25;98186.59;4437994;32;20104;-86
2022/05/23 09:55:47;;;;;;;5.07;1.52;;;;;;;27.29;23.25;98188.50;4437594;32;20136;-86
2022/05/23 09:58:22;;;;;;;6.12;1.58;;;;;;;27.52;22.61;98177.31;4424136;32;20152;-86
2022/05/23 10:01:09;;;;;;;5.78;1.65;;;;;;;27.71;23.30;98187.28;4425292;32;20105;-86
2022/05/23 10:03:37;;;;;;;8.18;1.50;;;;;;;27.85;22.61;98185.41;4433194;32;20105;-85
2022/05/23 10:06:12;;;;;;;5.50;1.70;;;;;;;27.93;22.18;98181.69;4424997;32;20090;-86
2022/05/23 10:08:45;;;;;;;5.37;1.60;;;;;;;28.13;22.18;98185.19;4426903;32;20518;-86
2022/05/23 10:11:33;;;;;;;6.72;1.70;;;;;;;28.20;21.88;98186.03;4422594;32;20094;-86
2022/05/23 10:14:00;;;;;;;7.90;1.90;;;;;;;28.04;21.95;98181.03;4422677;32;20434;-86
2022/05/23 10:16:56;;;;;;;8.60;1.67;;;;;;;28.20;20.91;98177.03;4454974;31;20156;-86
2022/05/23 10:19:33;;;;;;;4.68;1.40;;;;;;;28.05;21.96;98180.00;4500996;31;20110;-85
2022/05/23 10:22:15;;;;;;;7.50;1.50;;;;;;;28.08;21.99;98182.28;4488341;31;20123;-86
2022/05/23 10:24:54;;;;;;;5.60;1.73;;;;;;;28.17;22.02;98180.19;4497912;31;20088;-86
2022/05/23 10:27:26;;;;;;;6.93;1.62;;;;;;;28.20;21.83;98172.47;4488052;31;20096;-86
2022/05/23 10:29:58;;;;;;;5.80;1.70;;;;;;;28.15;22.56;98171.44;4489520;31;20114;-86
2022/05/23 10:32:29;;;;;;;6.32;1.70;;;;;;;28.09;22.22;98170.41;4474516;31;20462;-86
2022/05/23 10:35:02;;;;;;;6.87;1.65;;;;;;;28.11;22.42;98164.81;4502068;31;20094;-87
2022/05/23 10:37:29;;;;;;;6.12;1.80;;;;;;;28.03;22.46;98165.84;4488061;31;20080;-86
2022/05/23 10:43:11;;;;;;;7.85;1.75;;;;;;;28.24;22.53;98165.59;4490352;31;20115;-86
2022/05/23 10:45:51;;;;;;;8.23;1.60;;;;;;;28.19;21.69;98164.56;4502255;31;20080;-86
2022/05/23 10:48:32;;;;;;;5.40;1.55;;;;;;;28.17;22.30;98164.78;4489074;31;20118;-84
2022/05/23 10:51:29;;;;;;;9.07;1.58;;;;;;;28.25;22.28;98161.00;4495710;31;20092;-87
2022/05/23 10:54:19;;;;;;;7.28;1.90;;;;;;;28.30;21.99;98154.94;4499341;31;20812;-87
2022/05/23 10:57:03;;;;;;;9.48;1.70;;;;;;;28.26;21.22;98149.13;4492237;31;20152;-86
2022/05/23 10:59:38;;;;;;;6.53;1.85;;;;;;;28.13;21.52;98146.47;4491814;31;20075;-86
2022/05/23 11:02:06;;;;;;;6.62;1.67;;;;;;;28.18;21.96;98144.78;4472239;32;20104;-87
2022/05/23 11:04:49;;;;;;;7.85;1.70;;;;;;;28.25;21.79;98128.50;4490270;31;20115;-87
2022/05/23 11:07:35;;;;;;;7.07;1.73;;;;;;;28.22;22.11;98124.34;4493750;31;20110;-88
2022/05/23 11:10:38;;;;;;;7.65;2.00;;;;;;;28.31;22.25;98124.94;4499079;31;20075;-87
2022/05/23 11:13:09;;;;;;;5.78;1.65;;;;;;;28.46;22.08;98123.84;4493983;31;20430;-86
2022/05/23 11:15:56;;;;;;;6.32;1.40;;;;;;;28.43;21.71;98103.41;4490921;31;20076;-85
2022/05/23 11:18:34;;;;;;;6.12;1.70;;;;;;;28.20;23.83;98115.59;4486648;32;20111;-86
2022/05/23 11:21:09;;;;;;;5.55;1.58;;;;;;;28.26;22.40;98119.34;4493178;31;20086;-85
2022/05/23 11:23:55;;;;;;;8.60;1.80;;;;;;;28.31;22.66;98110.56;4487974;31;20108;-86
2022/05/23 11:26:30;;;;;;;6.87;1.70;;;;;;;28.42;22.60;98118.03;4485375;32;20084;-85
2022/05/23 11:34:58;;;;;;;5.45;1.70;;;;;;;28.81;21.88;98118.87;4489052;31;20478;-84
2022/05/23 11:40:08;;;;;;;6.85;1.85;;;;;;;29.10;21.24;98124.75;4486166;32;20088;-85
2022/05/23 11:42:53;;;;;;;4.15;1.60;;;;;;;28.99;20.19;98129.00;4488300;31;20079;-85
2022/05/23 11:48:39;;;;;;;5.87;1.70;;;;;;;28.88;20.81;98116.97;4486215;32;20118;-85
2022/05/23 11:51:23;;;;;;;5.35;1.70;;;;;;;28.68;21.17;98114.38;4493366;31;20113;-86
2022/05/23 11:54:00;;;;;;;6.07;2.00;;;;;;;28.49;21.43;98115.28;4489310;31;20106;-85
2022/05/23 11:56:46;;;;;;;5.97;1.80;;;;;;;28.65;21.35;98097.69;4485491;32;20100;-86
2022/05/23 11:59:34;;;;;;;6.78;1.67;;;;;;;28.77;20.20;98087.84;4487523;31;20474;-85
2022/05/23 12:02:12;;;;;;;;;;;;;;;28.83;20.57;98095.09;4421380;32;20135;-85
2022/05/23 12:04:49;;;;;;;5.45;1.60;;;;;;;28.85;20.71;98097.59;4421772;32;20003;-88
2022/05/23 12:07:45;;;;;;;5.65;1.62;;;;;;;28.70;20.67;98106.84;4408137;32;20126;-84
2022/05/23 12:10:24;;;;;;;5.12;1.52;;;;;;;28.69;20.42;98105.19;4421580;32;20106;-84
2022/05/23 12:12:55;;;;;;;5.78;1.40;;;;;;;28.73;20.24;98103.72;4420724;32;20127;-84
2022/05/23 12:15:42;;;;;;;6.82;1.50;;;;;;;28.95;20.61;98108.78;4421450;32;20140;-87
2022/05/23 12:18:19;;;;;;;8.25;1.60;;;;;;;28.95;20.37;98104.19;4408016;32;20475;-87
2022/05/23 12:20:47;;;;;;;6.43;1.70;;;;;;;29.10;20.71;98113.91;4421585;32;20098;-87
2022/05/23 12:23:42;;;;;;;5.65;1.70;;;;;;;29.34;19.92;98105.00;4392765;32;20148;-87
2022/05/23 12:26:10;;;;;;;5.50;1.52;;;;;;;29.31;19.71;98107.31;4407427;32;20119;-86
2022/05/23 12:28:58;;;;;;;7.30;1.80;;;;;;;29.38;19.65;98094.50;4420844;32;20098;-85
2022/05/23 12:31:31;;;;;;;5.70;1.70;;;;;;;29.41;19.12;98083.22;4406045;32;20492;-87
2022/05/23 12:34:02;;;;;;;3.85;1.48;;;;;;;29.49;19.38;98073.97;4405407;32;20121;-87
2022/05/23 12:36:29;;;;;;;6.28;1.67;;;;;;;29.56;19.39;98075.56;4421197;32;20193;-85
2022/05/23 12:39:07;;;;;;;8.10;1.70;;;;;;;29.67;19.82;98073.16;4451765;32;20217;-88
2022/05/23 12:41:47;;;;;;;4.30;1.45;;;;;;;29.64;19.56;98073.63;4489320;31;20495;-87
2022/05/23 12:44:50;;;;;;;8.10;1.90;;;;;;;29.27;19.21;98068.94;4488462;31;20443;-87
2022/05/23 12:47:49;;;;;;;5.18;1.48;;;;;;;29.16;19.77;98066.94;4494701;31;20136;-85
2022/05/23 12:50:18;;;;;;;6.18;1.65;;;;;;;29.36;19.85;98053.19;4500341;31;20105;-88
2022/05/23 12:53:07;;;;;;;6.15;1.58;;;;;;;29.38;19.94;98059.22;4492834;31;20114;-87